| Record Date MM/DD/YYYY | Record Time HH:MM:SS | Record Julian Date NNN day of the year | Air Temperature Max (Degrees Fahrenheit F) | Time Max Air Temperature HH:MM:SS This is the time of max air temp for the prior hour interval listed for record [Time]. | Air Temperature Min (Degrees Fahrenheit F) | Time Min Air Temperature HH:MM:SS This is the time of min air temp for the prior hour interval listed for record [Time]. | Air Temperature Observed (Degrees Fahrenheit F) This is an instantaneous reading at the record [Time]. | Relative Humidity Max (Percent) | Time Max Relative Humidity HH:MM:SS This is the time of max relative humidity for the prior hour interval listed for record [Time]. | Relative Humidity Min (Percent) | Time Min Relative Humidity HH:MM:SS This is the time of min relative humidity for the prior hour interval listed for record [Time]. | Relative Humidity Observed (Percent) This is an instantaneous reading at the record [Time]. | Precipitation (Inches n.nn) rain fall that occurred during the prior hour interval listed for record [Time]. | Wind Speed (Miles Per Hour) Resultant Speed that occurred during the prior hour interval listed for record [Time]. | Wind Direction (Degrees) Resultant Direction that occurred during the prior hour interval listed for record [Time]. | Solar Radiation (Langley's) that occurred during the prior hour interval listed for record [Time]. | Soil Temperature Average at 2 inch depth (Degrees Fahrenheit F) that occurred during the prior hour interval listed for record [Time]. | Soil Temperature Observed at 2 inch depth (Degrees Fahrenheit F) This is an instantaneous reading at the record [Time]. | Soil Temperature Average at 4 inch depth (Degrees Fahrenheit F) that occurred during the prior hour interval listed for record [Time]. | Soil Temperature Observed at 4 inch depth (Degrees Fahrenheit F) This is an instantaneous reading at the record [Time]. |
|---|---|---|---|---|---|---|---|---|---|---|---|---|---|---|---|---|---|---|---|---|
| 05/02/2026 | 0:00:00 | 122 | 59 | 23:08:00 | 58 | 23:54:02 | 58 | 78 | 23:53:02 | 70 | 23:05:04 | 76.86 | 0 | 0.7 | 17 | 0 | 66 | 66 | 67 | 67 |
| 05/02/2026 | 1:00:00 | 122 | 58 | 0:08:00 | 57 | 0:38:05 | 57 | 80 | 0:36:04 | 75 | 0:19:03 | 77.22 | 0 | 0.7 | 356 | 0 | 65 | 65 | 67 | 66 |
| 05/02/2026 | 2:00:00 | 122 | 58 | 1:55:01 | 57 | 1:30:01 | 58 | 78 | 1:30:00 | 73 | 1:52:01 | 72.89 | 0 | 0.7 | 10 | 0 | 65 | 65 | 66 | 66 |
| 05/02/2026 | 3:00:00 | 122 | 58 | 2:01:00 | 57 | 2:25:00 | 57 | 73 | 2:02:02 | 68 | 2:57:04 | 69.27 | 0 | 1.3 | 28 | 0 | 65 | 64 | 66 | 66 |
| 05/02/2026 | 4:00:00 | 122 | 57 | 3:00:02 | 56 | 3:58:02 | 56 | 74 | 3:56:03 | 68 | 3:19:01 | 72.9 | 0 | 0.8 | 11 | 0 | 64 | 64 | 66 | 65 |
| 05/02/2026 | 5:00:00 | 122 | 56 | 4:00:00 | 54 | 4:58:03 | 54 | 86 | 4:32:04 | 73 | 4:02:01 | 82.6 | 0 | 0.3 | 336 | 0 | 64 | 64 | 65 | 65 |
| 05/02/2026 | 6:00:00 | 122 | 55 | 5:14:03 | 54 | 5:01:00 | 54 | 89 | 5:41:05 | 78 | 5:10:00 | 87.3 | 0 | 1.7 | 338 | 2 | 63 | 63 | 65 | 65 |
| 05/02/2026 | 7:00:00 | 122 | 58 | 6:57:02 | 54 | 6:00:00 | 58 | 87 | 6:00:05 | 73 | 6:58:03 | 73.94 | 0 | 2.2 | 346 | 12 | 63 | 63 | 65 | 65 |
| 05/02/2026 | 8:00:00 | 122 | 62 | 7:59:04 | 58 | 7:00:04 | 62 | 75 | 7:01:04 | 56 | 7:58:02 | 57.93 | 0 | 2.8 | 9 | 35 | 63 | 64 | 64 | 65 |
| 05/02/2026 | 9:00:00 | 122 | 65 | 8:55:02 | 62 | 8:02:03 | 64 | 61 | 8:02:05 | 47 | 8:52:01 | 49.61 | 0 | 2.7 | 30 | 52 | 65 | 66 | 65 | 65 |
| 05/02/2026 | 10:00:00 | 122 | 67 | 9:57:05 | 64 | 9:00:00 | 66 | 55 | 9:24:02 | 39 | 9:54:02 | 43.57 | 0 | 3.7 | 6 | 65 | 67 | 68 | 66 | 66 |
| 05/02/2026 | 11:00:00 | 122 | 69 | 10:52:02 | 66 | 10:02:01 | 68 | 53 | 10:39:01 | 38 | 10:56:01 | 40.29 | 0 | 4.7 | 2 | 75 | 69 | 71 | 67 | 68 |
| 05/02/2026 | 12:00:00 | 122 | 70 | 12:00:00 | 68 | 11:03:01 | 70 | 46 | 11:22:05 | 32 | 11:47:00 | 40.54 | 0 | 4.6 | 8 | 80 | 72 | 73 | 69 | 70 |
| 05/02/2026 | 13:00:00 | 122 | 72 | 12:36:03 | 70 | 12:22:05 | 70 | 43 | 12:28:03 | 31 | 12:24:04 | 35.36 | 0 | 7.2 | 344 | 78 | 74 | 75 | 71 | 72 |
| 05/02/2026 | 14:00:00 | 122 | 73 | 13:53:01 | 70 | 13:02:00 | 72 | 43 | 13:52:02 | 32 | 13:55:00 | 32.62 | 0 | 7.7 | 348 | 74 | 76 | 76 | 72 | 73 |
| 05/02/2026 | 15:00:00 | 122 | 74 | 14:58:02 | 71 | 14:42:01 | 73 | 41 | 14:22:05 | 32 | 14:33:04 | 32.9 | 0 | 8.4 | 343 | 59 | 76 | 76 | 73 | 74 |
| 05/02/2026 | 16:00:00 | 122 | 74 | 15:25:02 | 71 | 15:43:01 | 71 | 39 | 15:24:00 | 31 | 15:15:02 | 35.04 | 0 | 8.4 | 344 | 40 | 76 | 75 | 74 | 74 |
| 05/02/2026 | 17:00:00 | 122 | 73 | 16:30:03 | 70 | 16:59:05 | 70 | 38 | 16:57:04 | 30 | 16:22:05 | 37.52 | 0 | 9.2 | 338 | 27 | 75 | 74 | 74 | 73 |
| 05/02/2026 | 18:00:00 | 122 | 72 | 17:11:01 | 70 | 17:00:03 | 70 | 42 | 18:00:00 | 34 | 17:12:03 | 41.93 | 0 | 7.9 | 348 | 15 | 73 | 72 | 73 | 72 |
| 05/02/2026 | 19:00:00 | 122 | 70 | 18:00:01 | 64 | 18:59:05 | 64 | 59 | 18:57:02 | 40 | 18:05:00 | 58.55 | 0 | 3.7 | 353 | 3 | 71 | 71 | 72 | 71 |
| 05/02/2026 | 20:00:00 | 122 | 64 | 19:00:00 | 60 | 19:59:05 | 60 | 64 | 19:44:03 | 58 | 19:00:01 | 62.57 | 0 | 0.4 | 76 | 0 | 70 | 69 | 71 | 70 |
| 05/02/2026 | 21:00:00 | 122 | 60 | 20:00:04 | 58 | 20:44:02 | 58 | 80 | 20:59:05 | 60 | 20:04:01 | 79.84 | 0 | 0.2 | 106 | 0 | 69 | 68 | 70 | 70 |
| 05/02/2026 | 22:00:00 | 122 | 58 | 21:00:03 | 57 | 21:55:00 | 57 | 88 | 21:56:02 | 78 | 21:19:01 | 85.3 | 0 | 0.4 | 109 | 0 | 68 | 67 | 69 | 69 |
| 05/02/2026 | 23:00:00 | 122 | 57 | 22:00:04 | 54 | 22:55:05 | 55 | 90 | 22:43:03 | 83 | 23:00:00 | 82.5 | 0 | 0.5 | 96 | 0 | 67 | 66 | 68 | 68 |
| 05/03/2026 | 0:00:00 | 123 | 55 | 23:19:03 | 54 | 23:59:04 | 54 | 95 | 23:59:05 | 82 | 23:00:02 | 94.5 | 0 | 0.4 | 178 | 0 | 66 | 65 | 68 | 67 |
| 05/03/2026 | 1:00:00 | 123 | 55 | 0:13:05 | 53 | 0:54:02 | 53 | 97 | 0:58:02 | 94 | 0:17:03 | 97 | 0 | 0.4 | 64 | 0 | 65 | 65 | 67 | 67 |
| 05/03/2026 | 2:00:00 | 123 | 53 | 1:01:02 | 51 | 2:00:00 | 51 | 98 | 1:47:03 | 97 | 1:13:03 | 97.8 | 0 | 0.8 | 47 | 0 | 64 | 64 | 66 | 66 |
| 05/03/2026 | 3:00:00 | 123 | 52 | 2:59:04 | 50 | 2:41:00 | 52 | 98 | 2:03:05 | 93 | 3:00:00 | 93 | 0 | 0.8 | 20 | 0 | 64 | 63 | 66 | 65 |
| 05/03/2026 | 4:00:00 | 123 | 53 | 3:12:01 | 52 | 3:00:00 | 53 | 93 | 3:00:00 | 84 | 3:59:02 | 83.5 | 0 | 2.8 | 112 | 0 | 63 | 63 | 65 | 65 |
| 05/03/2026 | 5:00:00 | 123 | 53 | 4:01:01 | 52 | 4:14:05 | 52 | 87 | 4:16:02 | 81 | 4:49:00 | 81.7 | 0 | 3.2 | 118 | 0 | 63 | 62 | 65 | 64 |
| 05/03/2026 | 6:00:00 | 123 | 54 | 5:59:05 | 52 | 5:04:01 | 54 | 82 | 5:10:01 | 78 | 5:59:00 | 78.41 | 0 | 4.2 | 119 | 3 | 62 | 62 | 64 | 64 |
| 05/03/2026 | 7:00:00 | 123 | 58 | 6:59:02 | 54 | 6:00:01 | 58 | 78 | 6:00:00 | 61 | 6:59:03 | 61.96 | 0 | 5.3 | 125 | 17 | 62 | 62 | 64 | 63 |
| 05/03/2026 | 8:00:00 | 123 | 62 | 7:42:00 | 58 | 7:00:03 | 62 | 64 | 7:01:00 | 53 | 7:59:00 | 53.85 | 0 | 5.6 | 134 | 35 | 62 | 62 | 63 | 63 |
| 05/03/2026 | 9:00:00 | 123 | 67 | 9:00:00 | 62 | 8:00:00 | 67 | 58 | 8:09:01 | 49 | 8:54:05 | 52.71 | 0 | 6.0 | 138 | 52 | 63 | 64 | 64 | 64 |
| 05/03/2026 | 10:00:00 | 123 | 70 | 9:59:01 | 66 | 9:13:05 | 69 | 55 | 9:43:04 | 47 | 9:37:04 | 47.66 | 0 | 4.3 | 165 | 66 | 66 | 67 | 65 | 65 |
| 05/03/2026 | 11:00:00 | 123 | 73 | 10:53:02 | 69 | 10:14:03 | 71 | 54 | 10:18:01 | 44 | 10:58:05 | 51.2 | 0 | 3.9 | 182 | 76 | 69 | 71 | 66 | 67 |
| 05/03/2026 | 12:00:00 | 123 | 74 | 11:59:02 | 71 | 11:08:03 | 74 | 53 | 11:01:01 | 32 | 11:23:04 | 41.63 | 0 | 4.2 | 242 | 80 | 72 | 74 | 69 | 70 |
| 05/03/2026 | 13:00:00 | 123 | 76 | 12:39:04 | 73 | 12:03:04 | 76 | 45 | 12:52:01 | 32 | 12:11:03 | 40.08 | 0 | 4.4 | 276 | 79 | 75 | 76 | 71 | 72 |
| 05/03/2026 | 14:00:00 | 123 | 77 | 13:53:02 | 74 | 13:05:02 | 76 | 44 | 13:49:02 | 35 | 13:19:04 | 36.15 | 0 | 5.2 | 281 | 73 | 77 | 78 | 73 | 73 |
| 05/03/2026 | 15:00:00 | 123 | 78 | 14:57:04 | 75 | 14:28:03 | 77 | 45 | 14:09:03 | 34 | 14:58:02 | 35.25 | 0 | 6.3 | 277 | 63 | 78 | 79 | 74 | 75 |
| 05/03/2026 | 16:00:00 | 123 | 78 | 15:42:05 | 76 | 15:34:01 | 77 | 43 | 15:07:05 | 34 | 15:14:05 | 36.15 | 0 | 5.8 | 278 | 49 | 78 | 78 | 75 | 75 |
| 05/03/2026 | 17:00:00 | 123 | 78 | 16:11:02 | 77 | 16:00:02 | 77 | 39 | 16:36:05 | 31 | 16:12:01 | 35.55 | 0 | 5.0 | 285 | 33 | 78 | 77 | 75 | 75 |
| 05/03/2026 | 18:00:00 | 123 | 78 | 17:10:02 | 76 | 17:56:03 | 76 | 42 | 17:49:00 | 32 | 17:01:04 | 38.07 | 0 | 3.5 | 271 | 16 | 76 | 76 | 75 | 75 |
| 05/03/2026 | 19:00:00 | 123 | 76 | 18:01:01 | 70 | 19:00:00 | 70 | 56 | 18:55:05 | 38 | 18:00:00 | 56.21 | 0 | 2.1 | 198 | 3 | 75 | 74 | 74 | 74 |
| 05/03/2026 | 20:00:00 | 123 | 70 | 19:00:01 | 66 | 19:59:01 | 66 | 72 | 19:59:01 | 56 | 19:11:04 | 71.51 | 0 | 2.4 | 136 | 0 | 73 | 72 | 73 | 73 |
| 05/03/2026 | 21:00:00 | 123 | 66 | 20:00:01 | 65 | 20:51:00 | 65 | 72 | 20:59:05 | 69 | 20:35:01 | 71.99 | 0 | 3.2 | 134 | 0 | 72 | 71 | 72 | 72 |
| 05/03/2026 | 22:00:00 | 123 | 66 | 21:01:01 | 64 | 21:59:04 | 65 | 73 | 22:00:00 | 70 | 21:32:02 | 72.89 | 0 | 3.3 | 136 | 0 | 71 | 70 | 72 | 71 |
| 05/03/2026 | 23:00:00 | 123 | 65 | 22:14:05 | 64 | 22:52:05 | 64 | 75 | 22:31:05 | 72 | 22:08:04 | 72.29 | 0 | 2.5 | 159 | 0 | 70 | 69 | 71 | 70 |
| 05/04/2026 | 0:00:00 | 124 | 64 | 23:31:00 | 63 | 23:59:05 | 63 | 74 | 23:58:05 | 71 | 23:30:05 | 73.84 | 0 | 3.7 | 185 | 0 | 69 | 68 | 70 | 70 |
| 05/04/2026 | 1:00:00 | 124 | 64 | 0:11:03 | 63 | 0:34:01 | 63 | 75 | 0:31:04 | 73 | 0:44:05 | 73.9 | 0 | 4.4 | 190 | 0 | 68 | 68 | 69 | 69 |
| 05/04/2026 | 2:00:00 | 124 | 63 | 1:02:01 | 62 | 1:52:04 | 62 | 78 | 1:56:01 | 74 | 1:11:02 | 76.72 | 0 | 4.4 | 195 | 0 | 67 | 67 | 69 | 68 |
| 05/04/2026 | 3:00:00 | 124 | 62 | 2:00:02 | 61 | 2:59:02 | 61 | 79 | 2:10:03 | 77 | 2:24:03 | 78.54 | 0 | 3.9 | 195 | 0 | 67 | 66 | 68 | 68 |
| 05/04/2026 | 4:00:00 | 124 | 61 | 3:00:04 | 59 | 3:59:05 | 59 | 84 | 3:41:00 | 79 | 3:00:00 | 82 | 0 | 3.3 | 198 | 0 | 66 | 66 | 68 | 67 |
| 05/04/2026 | 5:00:00 | 124 | 60 | 4:04:05 | 58 | 4:59:03 | 58 | 86 | 5:00:00 | 81 | 4:07:00 | 86.4 | 0 | 3.4 | 196 | 0 | 66 | 65 | 67 | 67 |
| 05/04/2026 | 6:00:00 | 124 | 60 | 5:59:05 | 58 | 5:26:05 | 60 | 88 | 5:27:02 | 83 | 6:00:00 | 83.4 | 0 | 4.0 | 190 | 2 | 65 | 65 | 67 | 66 |
| 05/04/2026 | 7:00:00 | 124 | 66 | 6:57:01 | 60 | 6:00:00 | 65 | 84 | 6:01:02 | 69 | 6:59:00 | 71.02 | 0 | 4.9 | 209 | 16 | 65 | 65 | 66 | 66 |
| 05/04/2026 | 8:00:00 | 124 | 68 | 7:56:05 | 65 | 7:00:03 | 68 | 73 | 7:01:02 | 62 | 7:59:02 | 63.94 | 0 | 9.3 | 241 | 33 | 65 | 66 | 66 | 66 |
| 05/04/2026 | 9:00:00 | 124 | 73 | 9:00:00 | 68 | 8:00:00 | 73 | 65 | 8:02:00 | 52 | 8:47:01 | 55.92 | 0 | 11.1 | 256 | 47 | 66 | 67 | 66 | 67 |
| 05/04/2026 | 10:00:00 | 124 | 76 | 9:53:04 | 73 | 9:00:00 | 75 | 57 | 9:01:05 | 47 | 9:56:01 | 47.98 | 0 | 11.2 | 255 | 64 | 68 | 69 | 67 | 68 |
| 05/04/2026 | 11:00:00 | 124 | 78 | 10:58:01 | 75 | 10:05:00 | 77 | 51 | 10:32:03 | 41 | 10:58:02 | 42.8 | 0 | 12.1 | 244 | 74 | 70 | 71 | 68 | 69 |
| 05/04/2026 | 12:00:00 | 124 | 79 | 11:59:05 | 77 | 11:05:04 | 79 | 48 | 11:03:02 | 37 | 11:43:05 | 39.9 | 0 | 10.7 | 229 | 79 | 72 | 73 | 70 | 70 |
| 05/04/2026 | 13:00:00 | 124 | 81 | 12:58:02 | 77 | 12:50:01 | 80 | 44 | 12:02:03 | 38 | 12:24:03 | 42.41 | 0 | 9.7 | 219 | 76 | 75 | 76 | 71 | 72 |
| 05/04/2026 | 14:00:00 | 124 | 81 | 13:48:02 | 78 | 13:10:05 | 79 | 44 | 13:33:01 | 38 | 13:51:01 | 41.68 | 0 | 9.9 | 224 | 72 | 76 | 77 | 73 | 73 |
| 05/04/2026 | 15:00:00 | 124 | 81 | 14:04:02 | 78 | 14:51:03 | 80 | 43 | 14:02:01 | 38 | 14:04:03 | 41.21 | 0 | 9.1 | 213 | 62 | 77 | 78 | 74 | 74 |
| 05/04/2026 | 16:00:00 | 124 | 81 | 15:04:02 | 78 | 15:15:04 | 79 | 45 | 15:13:00 | 38 | 15:04:05 | 40.6 | 0 | 9.3 | 205 | 43 | 77 | 77 | 75 | 75 |
| 05/04/2026 | 17:00:00 | 124 | 80 | 16:02:01 | 77 | 16:56:03 | 78 | 45 | 16:57:05 | 39 | 16:02:02 | 43.77 | 0 | 8.8 | 208 | 32 | 77 | 76 | 75 | 75 |
| 05/04/2026 | 18:00:00 | 124 | 79 | 17:02:02 | 76 | 17:57:05 | 76 | 46 | 17:36:01 | 42 | 17:02:05 | 45.61 | 0 | 8.5 | 214 | 13 | 75 | 74 | 74 | 74 |
| 05/04/2026 | 19:00:00 | 124 | 76 | 18:00:01 | 72 | 19:00:00 | 72 | 52 | 19:00:00 | 45 | 18:08:01 | 51.55 | 0 | 5.8 | 216 | 3 | 74 | 73 | 74 | 73 |
| 05/04/2026 | 20:00:00 | 124 | 72 | 19:00:00 | 69 | 19:58:00 | 69 | 61 | 19:59:04 | 51 | 19:02:01 | 61.08 | 0 | 3.1 | 192 | 0 | 72 | 72 | 73 | 72 |
| 05/04/2026 | 21:00:00 | 124 | 69 | 20:00:01 | 67 | 20:57:02 | 67 | 66 | 20:57:01 | 61 | 20:00:00 | 64.4 | 0 | 2.6 | 185 | 0 | 71 | 71 | 72 | 71 |
| 05/04/2026 | 22:00:00 | 124 | 68 | 21:17:00 | 67 | 21:49:04 | 68 | 67 | 21:51:00 | 62 | 21:16:05 | 62.74 | 0 | 2.8 | 193 | 0 | 70 | 70 | 71 | 71 |
| 05/04/2026 | 23:00:00 | 124 | 68 | 22:02:03 | 66 | 22:47:05 | 66 | 70 | 22:53:01 | 62 | 22:01:05 | 69.62 | 0 | 2.9 | 163 | 0 | 69 | 69 | 70 | 70 |
| 05/05/2026 | 0:00:00 | 125 | 66 | 23:50:05 | 65 | 23:28:01 | 66 | 72 | 23:26:01 | 69 | 23:02:05 | 70.61 | 0 | 3.5 | 168 | 0 | 69 | 68 | 70 | 70 |
| 05/05/2026 | 1:00:00 | 125 | 66 | 0:00:00 | 65 | 0:23:03 | 65 | 73 | 0:24:01 | 71 | 0:52:04 | 71.32 | 0 | 4.3 | 174 | 0 | 68 | 68 | 69 | 69 |
| 05/05/2026 | 2:00:00 | 125 | 65 | 1:00:01 | 64 | 1:59:02 | 64 | 75 | 1:43:05 | 71 | 1:11:04 | 74.01 | 0 | 5.4 | 193 | 0 | 68 | 67 | 69 | 69 |
| 05/05/2026 | 3:00:00 | 125 | 64 | 2:00:03 | 63 | 2:43:04 | 63 | 77 | 2:36:04 | 74 | 2:00:04 | 75.96 | 0 | 5.1 | 183 | 0 | 67 | 67 | 68 | 68 |
| 05/05/2026 | 4:00:00 | 125 | 63 | 3:10:01 | 63 | 3:40:04 | 63 | 78 | 3:34:03 | 76 | 3:09:04 | 77.57 | 0 | 5.8 | 179 | 0 | 67 | 66 | 68 | 68 |
| 05/05/2026 | 5:00:00 | 125 | 63 | 4:59:00 | 63 | 4:09:03 | 63 | 78 | 4:09:05 | 77 | 4:37:04 | 77.2 | 0 | 6.6 | 182 | 0 | 66 | 66 | 68 | 67 |
| 05/05/2026 | 6:00:00 | 125 | 64 | 5:59:01 | 63 | 5:04:03 | 64 | 79 | 5:53:03 | 76 | 5:19:00 | 78.33 | 0 | 6.9 | 187 | 2 | 66 | 66 | 67 | 67 |
| 05/05/2026 | 7:00:00 | 125 | 66 | 6:59:00 | 64 | 6:00:00 | 66 | 78 | 6:00:00 | 75 | 6:59:05 | 75.08 | 0 | 8.0 | 193 | 15 | 66 | 66 | 67 | 67 |
| 05/05/2026 | 8:00:00 | 125 | 68 | 8:00:00 | 66 | 7:01:02 | 68 | 77 | 7:02:01 | 74 | 7:41:02 | 75.23 | 0 | 8.4 | 197 | 17 | 66 | 67 | 67 | 67 |
| 05/05/2026 | 9:00:00 | 125 | 69 | 8:38:05 | 68 | 8:04:00 | 69 | 77 | 8:59:00 | 74 | 8:30:03 | 76.4 | 0 | 7.9 | 204 | 14 | 67 | 67 | 67 | 67 |
| 05/05/2026 | 10:00:00 | 125 | 71 | 9:56:01 | 69 | 9:01:04 | 71 | 77 | 9:30:02 | 74 | 9:56:05 | 75.28 | 0 | 7.8 | 193 | 16 | 67 | 68 | 67 | 68 |
| 05/05/2026 | 11:00:00 | 125 | 74 | 10:40:00 | 71 | 10:00:00 | 73 | 76 | 10:00:05 | 70 | 10:40:02 | 73.02 | 0 | 8.4 | 195 | 33 | 68 | 69 | 68 | 68 |
| 05/05/2026 | 12:00:00 | 125 | 74 | 11:50:01 | 72 | 11:02:01 | 74 | 75 | 11:35:00 | 72 | 11:50:01 | 73.75 | 0 | 8.9 | 193 | 21 | 69 | 70 | 68 | 69 |
| 05/05/2026 | 13:00:00 | 125 | 77 | 12:45:03 | 73 | 12:01:02 | 76 | 75 | 12:01:01 | 69 | 12:45:04 | 71.06 | 0 | 8.9 | 188 | 34 | 70 | 71 | 69 | 69 |
| 05/05/2026 | 14:00:00 | 125 | 77 | 13:19:05 | 75 | 13:44:05 | 76 | 77 | 13:42:01 | 70 | 13:03:03 | 75.55 | 0 | 9.2 | 192 | 25 | 71 | 71 | 70 | 70 |
| 05/05/2026 | 15:00:00 | 125 | 76 | 14:56:03 | 75 | 14:06:05 | 76 | 79 | 14:22:01 | 75 | 14:56:04 | 76.36 | 0 | 6.7 | 196 | 12 | 71 | 71 | 70 | 70 |
| 05/05/2026 | 16:00:00 | 125 | 77 | 15:59:05 | 75 | 15:06:02 | 77 | 77 | 15:20:03 | 72 | 15:59:05 | 72.53 | 0 | 6.0 | 154 | 16 | 71 | 71 | 70 | 70 |
| 05/05/2026 | 17:00:00 | 125 | 79 | 16:23:05 | 77 | 16:00:00 | 78 | 73 | 16:01:03 | 69 | 16:26:05 | 71.16 | 0 | 7.4 | 168 | 14 | 72 | 72 | 71 | 71 |
| 05/05/2026 | 18:00:00 | 125 | 78 | 17:02:00 | 77 | 17:50:05 | 77 | 74 | 17:58:02 | 71 | 17:08:02 | 73.73 | 0 | 7.1 | 188 | 3 | 72 | 71 | 71 | 71 |
| 05/05/2026 | 19:00:00 | 125 | 77 | 18:00:01 | 76 | 18:52:03 | 76 | 76 | 18:58:04 | 74 | 18:03:03 | 75.3 | 0 | 6.8 | 176 | 1 | 71 | 71 | 71 | 71 |
| 05/05/2026 | 20:00:00 | 125 | 77 | 19:21:00 | 76 | 19:56:00 | 76 | 77 | 19:55:02 | 75 | 19:20:05 | 76.63 | 0 | 7.7 | 189 | 0 | 71 | 71 | 71 | 70 |
| 05/05/2026 | 21:00:00 | 125 | 76 | 20:13:00 | 76 | 20:46:05 | 76 | 78 | 20:47:04 | 76 | 20:13:01 | 77.72 | 0 | 7.1 | 190 | 0 | 71 | 71 | 70 | 70 |
| 05/05/2026 | 22:00:00 | 125 | 76 | 21:29:03 | 76 | 21:55:00 | 76 | 80 | 21:59:05 | 78 | 21:07:03 | 79.74 | 0 | 7.1 | 192 | 0 | 70 | 70 | 70 | 70 |
| 05/05/2026 | 23:00:00 | 125 | 76 | 22:01:01 | 75 | 22:45:00 | 76 | 82 | 22:44:04 | 80 | 22:02:02 | 81.3 | 0 | 7.4 | 186 | 0 | 70 | 70 | 70 | 70 |
| 05/06/2026 | 0:00:00 | 126 | 76 | 23:00:05 | 75 | 23:56:05 | 75 | 84 | 23:57:01 | 81 | 23:00:04 | 83.4 | 0 | 7.4 | 197 | 0 | 70 | 70 | 70 | 70 |
| 05/06/2026 | 1:00:00 | 126 | 75 | 0:00:02 | 74 | 0:59:02 | 74 | 86 | 0:59:03 | 83 | 0:00:00 | 86.2 | 0 | 7.5 | 199 | 0 | 70 | 70 | 70 | 70 |
| 05/06/2026 | 2:00:00 | 126 | 74 | 1:59:03 | 74 | 1:20:02 | 74 | 88 | 1:37:03 | 86 | 1:00:00 | 86.6 | 0 | 6.0 | 200 | 0 | 70 | 70 | 70 | 70 |
| 05/06/2026 | 3:00:00 | 126 | 75 | 2:10:01 | 74 | 2:01:01 | 75 | 87 | 2:01:03 | 85 | 2:10:04 | 86.2 | 0 | 8.6 | 214 | 0 | 70 | 70 | 70 | 70 |
| 05/06/2026 | 4:00:00 | 126 | 75 | 3:00:04 | 74 | 3:41:04 | 75 | 87 | 3:46:00 | 86 | 3:00:03 | 86.1 | 0 | 7.0 | 216 | 0 | 70 | 70 | 70 | 70 |
| 05/06/2026 | 5:00:00 | 126 | 75 | 4:00:00 | 74 | 4:49:03 | 74 | 88 | 4:50:01 | 86 | 4:00:01 | 87.9 | 0 | 7.2 | 214 | 0 | 70 | 70 | 70 | 70 |
| 05/06/2026 | 6:00:00 | 126 | 74 | 5:00:05 | 74 | 5:52:03 | 74 | 90 | 5:53:02 | 88 | 5:03:00 | 89.2 | 0 | 6.9 | 219 | 2 | 70 | 70 | 70 | 70 |
| 05/06/2026 | 7:00:00 | 126 | 75 | 6:59:04 | 74 | 6:00:00 | 75 | 89 | 6:00:00 | 87 | 6:43:02 | 87.8 | 0 | 6.0 | 214 | 7 | 70 | 70 | 70 | 70 |
| 05/06/2026 | 8:00:00 | 126 | 77 | 7:55:04 | 75 | 7:00:00 | 77 | 88 | 7:00:01 | 84 | 7:58:01 | 85.3 | 0 | 8.8 | 224 | 14 | 71 | 71 | 70 | 70 |
| 05/06/2026 | 9:00:00 | 126 | 77 | 8:09:04 | 67 | 9:00:00 | 67 | 92 | 8:52:05 | 84 | 8:37:00 | 91.4 | 0 | 7.6 | 262 | 10 | 71 | 71 | 70 | 71 |
| 05/06/2026 | 10:00:00 | 126 | 67 | 9:01:01 | 62 | 9:40:02 | 63 | 96 | 10:00:00 | 91 | 9:48:04 | 95.9 | 0 | 7.6 | 348 | 11 | 71 | 71 | 71 | 71 |
| 05/06/2026 | 11:00:00 | 126 | 65 | 10:30:03 | 63 | 10:00:01 | 63 | 94 | 10:01:00 | 85 | 10:31:02 | 86.6 | 0 | 7.0 | 349 | 31 | 71 | 71 | 71 | 71 |
| 05/06/2026 | 12:00:00 | 126 | 64 | 11:53:05 | 62 | 11:44:00 | 63 | 89 | 11:45:04 | 84 | 11:28:00 | 87.3 | 0 | 5.8 | 353 | 28 | 71 | 71 | 71 | 71 |
| 05/06/2026 | 13:00:00 | 126 | 64 | 12:02:02 | 62 | 12:53:00 | 62 | 89 | 12:25:05 | 85 | 12:03:01 | 86.9 | 0 | 4.9 | 357 | 22 | 71 | 71 | 71 | 71 |
| 05/06/2026 | 14:00:00 | 126 | 63 | 13:20:02 | 62 | 13:35:04 | 62 | 89 | 13:38:04 | 85 | 13:22:00 | 86.5 | 0 | 5.3 | 356 | 20 | 71 | 71 | 71 | 71 |
| 05/06/2026 | 15:00:00 | 126 | 62 | 14:00:01 | 59 | 14:59:05 | 59 | 90 | 14:59:00 | 87 | 14:00:02 | 89.2 | 0 | 6.7 | 354 | 11 | 71 | 70 | 71 | 71 |
| 05/06/2026 | 16:00:00 | 126 | 60 | 15:58:01 | 58 | 15:19:02 | 60 | 90 | 15:22:05 | 86 | 15:58:05 | 86.1 | 0 | 4.7 | 12 | 15 | 70 | 70 | 70 | 70 |
| 05/06/2026 | 17:00:00 | 126 | 60 | 16:03:04 | 59 | 16:13:01 | 60 | 89 | 16:22:01 | 85 | 16:04:01 | 88.4 | 0 | 2.9 | 49 | 5 | 70 | 70 | 70 | 70 |
| 05/06/2026 | 18:00:00 | 126 | 60 | 17:33:01 | 60 | 17:14:00 | 60 | 89 | 17:07:01 | 87 | 17:36:04 | 87.3 | 0 | 3.3 | 6 | 3 | 69 | 69 | 70 | 70 |
| 05/06/2026 | 19:00:00 | 126 | 60 | 18:00:02 | 59 | 18:57:04 | 59 | 89 | 18:59:03 | 87 | 18:18:04 | 89.3 | 0 | 3.8 | 360 | 0 | 69 | 68 | 69 | 69 |
| 05/06/2026 | 20:00:00 | 126 | 59 | 19:00:00 | 58 | 19:22:00 | 59 | 91 | 19:47:05 | 89 | 19:00:04 | 91.1 | 0 | 4.0 | 4 | 0 | 68 | 68 | 69 | 69 |
| 05/06/2026 | 21:00:00 | 126 | 59 | 20:00:03 | 58 | 20:58:00 | 58 | 92 | 20:58:02 | 91 | 20:49:02 | 91.4 | 0 | 3.8 | 359 | 0 | 67 | 67 | 69 | 68 |
| 05/06/2026 | 22:00:00 | 126 | 58 | 21:01:00 | 57 | 21:53:00 | 57 | 95 | 22:00:00 | 91 | 21:23:00 | 95.1 | 0 | 3.5 | 12 | 0 | 67 | 67 | 68 | 68 |
| 05/06/2026 | 23:00:00 | 126 | 58 | 22:39:01 | 57 | 22:07:02 | 57 | 95 | 22:03:00 | 94 | 22:41:02 | 94 | 0 | 3.8 | 355 | 0 | 67 | 66 | 68 | 67 |
| 05/07/2026 | 0:00:00 | 127 | 58 | 23:00:04 | 57 | 23:46:04 | 57 | 95 | 0:00:00 | 94 | 23:01:02 | 95.2 | 0 | 3.4 | 5 | 0 | 66 | 66 | 67 | 67 |
| 05/07/2026 | 1:00:00 | 127 | 57 | 0:27:04 | 57 | 0:02:02 | 57 | 95 | 0:00:00 | 93 | 1:00:00 | 93 | 0 | 2.2 | 37 | 0 | 66 | 66 | 67 | 67 |
| 05/07/2026 | 2:00:00 | 127 | 58 | 1:22:03 | 56 | 1:59:04 | 56 | 96 | 1:54:01 | 93 | 1:24:01 | 95.6 | 0 | 4.6 | 353 | 0 | 66 | 65 | 67 | 67 |
| 05/07/2026 | 3:00:00 | 127 | 56 | 2:11:02 | 56 | 2:56:03 | 56 | 97 | 2:58:02 | 95 | 2:25:01 | 96.9 | 0.01 | 3.3 | 357 | 0 | 65 | 65 | 66 | 66 |
| 05/07/2026 | 4:00:00 | 127 | 56 | 3:00:00 | 56 | 3:22:04 | 56 | 98 | 3:34:05 | 97 | 3:01:05 | 97.3 | 0.01 | 2.3 | 10 | 0 | 65 | 65 | 66 | 66 |
| 05/07/2026 | 5:00:00 | 127 | 56 | 4:21:00 | 56 | 4:01:00 | 56 | 97 | 4:21:00 | 96 | 4:53:00 | 96.2 | 0 | 1.9 | 6 | 0 | 65 | 65 | 66 | 66 |
| 05/07/2026 | 6:00:00 | 127 | 56 | 5:47:01 | 56 | 5:58:00 | 56 | 96 | 5:00:02 | 95 | 5:56:05 | 95 | 0 | 2.7 | 359 | 2 | 65 | 64 | 66 | 66 |
| 05/07/2026 | 7:00:00 | 127 | 59 | 6:58:04 | 56 | 6:04:02 | 59 | 95 | 6:01:03 | 84 | 6:59:01 | 84.1 | 0 | 3.0 | 19 | 18 | 64 | 64 | 65 | 65 |
| 05/07/2026 | 8:00:00 | 127 | 62 | 7:52:02 | 59 | 7:00:00 | 61 | 85 | 7:01:03 | 76 | 7:48:04 | 75.93 | 0 | 3.8 | 18 | 38 | 65 | 65 | 65 | 66 |
| 05/07/2026 | 9:00:00 | 127 | 64 | 8:42:00 | 61 | 8:00:05 | 64 | 80 | 8:02:03 | 64 | 9:00:00 | 64.08 | 0 | 3.6 | 30 | 52 | 66 | 67 | 66 | 66 |
| 05/07/2026 | 10:00:00 | 127 | 65 | 9:16:02 | 63 | 9:01:05 | 65 | 69 | 9:05:05 | 61 | 9:55:02 | 62.59 | 0 | 3.8 | 28 | 55 | 68 | 69 | 67 | 67 |
| 05/07/2026 | 11:00:00 | 127 | 68 | 10:35:01 | 65 | 10:17:01 | 67 | 66 | 10:58:03 | 56 | 10:51:03 | 59.01 | 0 | 4.3 | 36 | 76 | 70 | 71 | 68 | 69 |
| 05/07/2026 | 12:00:00 | 127 | 68 | 11:45:04 | 65 | 11:18:01 | 66 | 64 | 11:25:05 | 53 | 11:27:03 | 56.86 | 0 | 4.2 | 17 | 60 | 72 | 73 | 70 | 70 |
| 05/07/2026 | 13:00:00 | 127 | 70 | 12:53:05 | 66 | 12:00:03 | 70 | 62 | 12:09:01 | 52 | 12:18:00 | 59.01 | 0 | 3.8 | 15 | 59 | 74 | 74 | 71 | 71 |
| 05/07/2026 | 14:00:00 | 127 | 71 | 13:27:00 | 69 | 13:15:04 | 70 | 60 | 13:00:01 | 50 | 13:19:02 | 51.59 | 0 | 4.4 | 7 | 47 | 75 | 75 | 72 | 72 |
| 05/07/2026 | 15:00:00 | 127 | 73 | 14:26:02 | 70 | 14:02:01 | 72 | 57 | 14:19:03 | 48 | 14:48:03 | 50.6 | 0 | 3.7 | 9 | 61 | 75 | 76 | 73 | 73 |
| 05/07/2026 | 16:00:00 | 127 | 74 | 15:45:03 | 72 | 15:12:05 | 73 | 53 | 15:01:02 | 45 | 15:52:02 | 45.84 | 0 | 5.4 | 356 | 47 | 76 | 76 | 74 | 74 |
| 05/07/2026 | 17:00:00 | 127 | 73 | 16:06:04 | 71 | 16:59:04 | 71 | 52 | 16:59:00 | 45 | 16:11:00 | 49.37 | 0 | 4.2 | 2 | 24 | 76 | 75 | 74 | 74 |
| 05/07/2026 | 18:00:00 | 127 | 71 | 17:24:04 | 68 | 17:58:02 | 68 | 52 | 17:59:05 | 46 | 17:26:03 | 52.16 | 0 | 1.7 | 47 | 11 | 75 | 74 | 74 | 73 |
| 05/07/2026 | 19:00:00 | 127 | 68 | 18:00:00 | 65 | 18:59:00 | 65 | 61 | 19:00:00 | 51 | 18:03:01 | 60.74 | 0 | 0.6 | 88 | 2 | 73 | 72 | 73 | 73 |
| 05/07/2026 | 20:00:00 | 127 | 65 | 19:00:00 | 62 | 19:36:01 | 62 | 68 | 19:34:02 | 60 | 19:00:05 | 65.38 | 0 | 0.2 | 79 | 0 | 72 | 71 | 72 | 72 |
| 05/07/2026 | 21:00:00 | 127 | 63 | 20:00:01 | 61 | 20:42:05 | 61 | 70 | 20:41:03 | 64 | 20:11:01 | 66.65 | 0 | 0.2 | 73 | 0 | 71 | 70 | 71 | 71 |
| 05/07/2026 | 22:00:00 | 127 | 61 | 21:00:02 | 60 | 21:40:01 | 61 | 75 | 21:37:03 | 65 | 21:03:00 | 70.22 | 0 | 0.6 | 105 | 0 | 70 | 69 | 71 | 70 |
| 05/07/2026 | 23:00:00 | 127 | 61 | 22:07:03 | 59 | 22:56:02 | 59 | 74 | 22:57:00 | 68 | 22:10:02 | 73.12 | 0 | 0.6 | 90 | 0 | 69 | 68 | 70 | 69 |
| 05/08/2026 | 0:00:00 | 128 | 59 | 23:00:04 | 57 | 23:59:04 | 57 | 82 | 0:00:00 | 73 | 23:00:00 | 82.4 | 0 | 0.2 | 32 | 0 | 68 | 67 | 69 | 69 |
| 05/08/2026 | 1:00:00 | 128 | 57 | 0:36:00 | 56 | 0:53:05 | 56 | 85 | 0:53:00 | 82 | 0:08:00 | 83.9 | 0 | 0.6 | 358 | 0 | 67 | 67 | 69 | 68 |
| 05/08/2026 | 2:00:00 | 128 | 56 | 1:00:05 | 55 | 1:33:04 | 55 | 87 | 1:43:04 | 83 | 1:05:02 | 85.3 | 0 | 0.2 | 5 | 0 | 67 | 66 | 68 | 68 |
| 05/08/2026 | 3:00:00 | 128 | 56 | 2:13:05 | 55 | 2:58:02 | 55 | 89 | 2:32:01 | 85 | 2:00:02 | 88.2 | 0 | 0.3 | 19 | 0 | 66 | 66 | 67 | 67 |
| 05/08/2026 | 4:00:00 | 128 | 55 | 3:00:01 | 54 | 3:59:01 | 54 | 92 | 3:59:03 | 88 | 3:00:00 | 91.5 | 0 | 0.5 | 6 | 0 | 66 | 65 | 67 | 67 |
| 05/08/2026 | 5:00:00 | 128 | 54 | 4:00:00 | 53 | 4:57:05 | 53 | 94 | 4:59:05 | 92 | 4:00:00 | 94 | 0 | 1.0 | 22 | 0 | 65 | 65 | 67 | 66 |
| 05/08/2026 | 6:00:00 | 128 | 56 | 5:59:05 | 53 | 5:00:01 | 56 | 95 | 5:21:00 | 87 | 5:58:05 | 87 | 0 | 0.4 | 58 | 2 | 65 | 64 | 66 | 66 |
| 05/08/2026 | 7:00:00 | 128 | 62 | 6:59:05 | 56 | 6:00:01 | 62 | 88 | 6:07:02 | 77 | 6:58:05 | 77.5 | 0 | 2.0 | 91 | 11 | 65 | 65 | 66 | 66 |
| 05/08/2026 | 8:00:00 | 128 | 66 | 7:52:03 | 61 | 7:03:02 | 64 | 79 | 7:01:04 | 60 | 7:49:03 | 65.13 | 0 | 4.0 | 105 | 30 | 65 | 66 | 66 | 66 |
| 05/08/2026 | 9:00:00 | 128 | 68 | 8:27:02 | 64 | 8:00:05 | 66 | 68 | 8:03:03 | 58 | 8:27:04 | 64.28 | 0 | 3.9 | 116 | 28 | 66 | 67 | 66 | 67 |
| 05/08/2026 | 10:00:00 | 128 | 70 | 9:49:02 | 65 | 9:08:00 | 69 | 66 | 9:08:01 | 55 | 9:50:00 | 58.92 | 0 | 4.4 | 116 | 32 | 67 | 68 | 67 | 67 |
| 05/08/2026 | 11:00:00 | 128 | 71 | 10:48:03 | 69 | 10:00:01 | 70 | 60 | 10:27:04 | 53 | 10:50:03 | 57.46 | 0 | 5.4 | 128 | 43 | 68 | 69 | 67 | 68 |
| 05/08/2026 | 12:00:00 | 128 | 72 | 11:48:05 | 68 | 11:23:03 | 70 | 59 | 11:31:02 | 52 | 11:49:03 | 58.53 | 0 | 6.5 | 137 | 43 | 70 | 70 | 68 | 69 |
| 05/08/2026 | 13:00:00 | 128 | 73 | 12:56:02 | 70 | 12:00:00 | 72 | 61 | 12:08:05 | 53 | 12:57:04 | 55.96 | 0 | 7.3 | 142 | 67 | 71 | 72 | 69 | 70 |
| 05/08/2026 | 14:00:00 | 128 | 73 | 13:27:00 | 71 | 13:14:02 | 72 | 62 | 13:51:04 | 54 | 13:08:00 | 61.24 | 0 | 7.3 | 144 | 40 | 73 | 73 | 70 | 71 |
| 05/08/2026 | 15:00:00 | 128 | 72 | 14:11:05 | 70 | 14:59:01 | 70 | 68 | 14:55:03 | 59 | 14:01:02 | 66.84 | 0 | 5.3 | 143 | 17 | 73 | 72 | 71 | 71 |
| 05/08/2026 | 16:00:00 | 128 | 70 | 15:29:05 | 69 | 15:55:01 | 69 | 70 | 15:51:01 | 66 | 15:07:04 | 68.86 | 0 | 5.9 | 140 | 9 | 72 | 71 | 71 | 71 |
| 05/08/2026 | 17:00:00 | 128 | 73 | 16:48:05 | 69 | 16:00:00 | 71 | 70 | 16:12:03 | 61 | 16:49:02 | 66.07 | 0 | 4.9 | 144 | 20 | 71 | 71 | 71 | 71 |
| 05/08/2026 | 18:00:00 | 128 | 72 | 17:30:01 | 70 | 17:59:03 | 70 | 68 | 17:07:00 | 64 | 17:39:02 | 67.85 | 0 | 5.6 | 144 | 13 | 71 | 71 | 71 | 71 |
| 05/08/2026 | 19:00:00 | 128 | 70 | 18:06:04 | 67 | 18:59:03 | 67 | 75 | 18:59:05 | 67 | 18:07:03 | 74.92 | 0 | 4.3 | 148 | 3 | 70 | 70 | 70 | 70 |
| 05/08/2026 | 20:00:00 | 128 | 67 | 19:00:00 | 66 | 19:41:01 | 66 | 79 | 19:43:03 | 75 | 19:01:05 | 78.3 | 0 | 3.2 | 152 | 0 | 70 | 69 | 70 | 70 |
| 05/08/2026 | 21:00:00 | 128 | 66 | 20:02:00 | 66 | 20:58:04 | 66 | 83 | 20:51:02 | 78 | 20:02:03 | 82.6 | 0 | 3.2 | 152 | 0 | 69 | 69 | 69 | 69 |
| 05/08/2026 | 22:00:00 | 128 | 66 | 21:20:04 | 65 | 21:59:03 | 65 | 86 | 21:59:03 | 83 | 21:00:00 | 85.7 | 0 | 2.9 | 155 | 0 | 68 | 68 | 69 | 69 |
| 05/08/2026 | 23:00:00 | 128 | 66 | 22:40:04 | 63 | 22:59:01 | 63 | 96 | 22:59:05 | 85 | 22:39:01 | 96.2 | 0.14 | 4.5 | 224 | 0 | 68 | 68 | 69 | 69 |
| 05/09/2026 | 0:00:00 | 129 | 64 | 23:59:02 | 63 | 23:01:03 | 64 | 98 | 23:59:02 | 96 | 23:11:00 | 98.1 | 0 | 5.6 | 197 | 0 | 68 | 68 | 68 | 68 |
| 05/09/2026 | 1:00:00 | 129 | 64 | 0:37:05 | 64 | 0:28:03 | 64 | 99 | 0:59:05 | 98 | 0:09:05 | 98.9 | 0 | 1.6 | 270 | 0 | 67 | 67 | 68 | 68 |
| 05/09/2026 | 2:00:00 | 129 | 65 | 1:59:02 | 64 | 1:05:00 | 65 | 100 | 1:59:00 | 99 | 1:05:00 | 99.8 | 0.02 | 1.9 | 175 | 0 | 67 | 67 | 68 | 68 |
| 05/09/2026 | 3:00:00 | 129 | 65 | 2:58:05 | 65 | 2:03:05 | 65 | 100 | 2:24:04 | 100 | 2:03:05 | 100 | 0 | 2.5 | 169 | 0 | 67 | 67 | 68 | 68 |
| 05/09/2026 | 4:00:00 | 129 | 65 | 3:29:04 | 65 | 3:04:00 | 65 | 100 | 3:00:00 | 100 | 3:38:01 | 100 | 0.01 | 2.9 | 173 | 0 | 67 | 67 | 68 | 68 |
| 05/09/2026 | 5:00:00 | 129 | 65 | 4:28:01 | 65 | 5:00:00 | 65 | 100 | 4:07:04 | 99 | 4:44:04 | 99.5 | 0 | 2.3 | 172 | 0 | 67 | 67 | 68 | 68 |
| 05/09/2026 | 6:00:00 | 129 | 65 | 5:00:01 | 64 | 5:41:00 | 64 | 100 | 5:32:02 | 100 | 5:00:02 | 100 | 0 | 0.5 | 5 | 1 | 67 | 67 | 68 | 68 |
| 05/09/2026 | 7:00:00 | 129 | 67 | 6:59:02 | 64 | 6:06:03 | 67 | 100 | 6:00:00 | 98 | 6:59:04 | 97.9 | 0 | 1.8 | 357 | 13 | 67 | 67 | 67 | 67 |
| 05/09/2026 | 8:00:00 | 129 | 69 | 7:56:04 | 67 | 7:00:01 | 69 | 98 | 7:02:02 | 93 | 7:50:02 | 93.8 | 0 | 2.8 | 356 | 25 | 68 | 68 | 68 | 68 |
| 05/09/2026 | 9:00:00 | 129 | 72 | 8:49:04 | 68 | 8:01:03 | 71 | 95 | 8:14:03 | 86 | 8:53:00 | 87.7 | 0 | 3.0 | 355 | 27 | 69 | 70 | 68 | 69 |
| Average | 67.03 | 64.92 | 65.92 | 75.11 | 68.57 | 71.87 | 0 | 4.56 | 18.29 | 69.16 | 69.12 | 69.12 | 69.11 | |||||||
| Total | 0.19 |